Página principal
METAR-TAF:

METAR-TAF

Aeroportos :

Longyearbyen, Noruega

latitude: 78-15N, longitude: 015-28E, altura: 2 m

Observação actual do tempo

O boletim foi feito há 12 minutos, às 05:50 UTC
Vento 6 kt de sudeste
Temperatura 9°C
Humidade 66%
Pressão 1023 hPa
Visibilidade 10 km ou mais
Nuvens fragmentadasa uma altura de 3000 ft

METAR: ENSB 120550Z 13006KT 9999 BKN030 09/03 Q1023 NOSIG RMK WIND 1400FT 13006KT

Hora: 08:02 (06:02 UTC)

Previsão

Previsão válida de 12 às 06 UTC a 13 às 06 UTC
Vento 8 kt de es-sudeste
Visibilidade 10 km ou mais
Poucas nuvensa uma altura de 1200 ft
Nuvens fragmentadasa uma altura de 3000 ft

TAF: ENSB 1206/1306 12008KT 9999 FEW012 BKN030

Observações e previsões do tempo de mais de 4000 aeroportos (mensagens METAR e TAF).

As estações disponíveis são os pontos amarelos e vermelhos sobre o mapa.

Mova o rato sobre o mapa para ver o nome da estação.

Depois clique no ponto para visualizar as observações e previsões meteorológicas.

Para alterar o mapa : clique nos botões verdes com uma cruz preta para aumentar o zoom; no botão verde com uma pitada de zoom; ou nas setas verdes para mapas adjacentes.


METAR-TAF: